sensor_id;sensor_type;location;lat;lon;timestamp;pressure;altitude;pressure_sealevel;temperature;humidity
74659;BME280;63186;51.204;6.536;2024-03-02T00:00:57;99567.88;;;6.52;96.44
74659;BME280;63186;51.204;6.536;2024-03-02T00:03:25;99563.72;;;6.55;96.23
74659;BME280;63186;51.204;6.536;2024-03-02T00:05:51;99556.88;;;6.66;95.62
74659;BME280;63186;51.204;6.536;2024-03-02T00:08:24;99556.09;;;6.74;94.97
74659;BME280;63186;51.204;6.536;2024-03-02T00:10:57;99571.56;;;6.78;95.13
74659;BME280;63186;51.204;6.536;2024-03-02T00:13:22;99574.59;;;6.77;95.49
74659;BME280;63186;51.204;6.536;2024-03-02T00:15:57;99555.63;;;6.80;95.26
74659;BME280;63186;51.204;6.536;2024-03-02T00:18:27;99564.66;;;6.81;95.77
74659;BME280;63186;51.204;6.536;2024-03-02T00:20:56;99559.19;;;6.81;95.76
74659;BME280;63186;51.204;6.536;2024-03-02T00:23:22;99564.66;;;6.81;95.86
74659;BME280;63186;51.204;6.536;2024-03-02T00:25:53;99557.47;;;6.94;95.13
74659;BME280;63186;51.204;6.536;2024-03-02T00:28:34;99558.44;;;6.98;94.92
74659;BME280;63186;51.204;6.536;2024-03-02T00:36:05;99550.25;;;6.98;94.71
74659;BME280;63186;51.204;6.536;2024-03-02T00:38:31;99558.13;;;6.99;94.69
74659;BME280;63186;51.204;6.536;2024-03-02T00:46:33;99561.69;;;7.08;94.57
74659;BME280;63186;51.204;6.536;2024-03-02T00:49:00;99561.03;;;7.03;94.77
74659;BME280;63186;51.204;6.536;2024-03-02T00:51:27;99576.63;;;7.02;95.12
74659;BME280;63186;51.204;6.536;2024-03-02T00:53:55;99568.41;;;6.94;95.49
74659;BME280;63186;51.204;6.536;2024-03-02T00:56:22;99574.66;;;6.86;96.14
74659;BME280;63186;51.204;6.536;2024-03-02T00:58:48;99571.38;;;6.75;96.65
74659;BME280;63186;51.204;6.536;2024-03-02T01:01:13;99572.13;;;6.67;97.25
74659;BME280;63186;51.204;6.536;2024-03-02T01:03:39;99568.25;;;6.59;97.98
74659;BME280;63186;51.204;6.536;2024-03-02T01:06:04;99559.84;;;6.56;98.15
74659;BME280;63186;51.204;6.536;2024-03-02T01:08:30;99567.44;;;6.59;97.83
74659;BME280;63186;51.204;6.536;2024-03-02T01:10:55;99569.19;;;6.55;98.33
74659;BME280;63186;51.204;6.536;2024-03-02T01:13:22;99587.16;;;6.47;98.79
74659;BME280;63186;51.204;6.536;2024-03-02T01:15:48;99587.28;;;6.42;99.28
74659;BME280;63186;51.204;6.536;2024-03-02T01:18:13;99583.84;;;6.36;99.63
74659;BME280;63186;51.204;6.536;2024-03-02T01:20:39;99571.09;;;6.32;100.00
74659;BME280;63186;51.204;6.536;2024-03-02T01:23:04;99588.19;;;6.37;100.00
74659;BME280;63186;51.204;6.536;2024-03-02T01:25:29;99582.41;;;6.39;100.00
74659;BME280;63186;51.204;6.536;2024-03-02T01:27:55;99581.44;;;6.35;100.00
74659;BME280;63186;51.204;6.536;2024-03-02T01:30:20;99575.97;;;6.35;100.00
74659;BME280;63186;51.204;6.536;2024-03-02T01:32:46;99578.06;;;6.38;100.00
74659;BME280;63186;51.204;6.536;2024-03-02T01:35:12;99570.19;;;6.36;100.00
74659;BME280;63186;51.204;6.536;2024-03-02T01:37:37;99576.78;;;6.35;100.00
74659;BME280;63186;51.204;6.536;2024-03-02T01:40:02;99586.28;;;6.38;100.00
74659;BME280;63186;51.204;6.536;2024-03-02T01:42:28;99578.63;;;6.48;100.00
74659;BME280;63186;51.204;6.536;2024-03-02T01:44:54;99584.66;;;6.59;99.99
74659;BME280;63186;51.204;6.536;2024-03-02T01:47:19;99585.81;;;6.67;99.55
74659;BME280;63186;51.204;6.536;2024-03-02T01:49:45;99587.09;;;6.69;99.33
74659;BME280;63186;51.204;6.536;2024-03-02T01:52:10;99592.44;;;6.74;99.00
74659;BME280;63186;51.204;6.536;2024-03-02T01:54:36;99586.50;;;6.72;99.12
74659;BME280;63186;51.204;6.536;2024-03-02T01:57:01;99587.31;;;6.73;99.14
74659;BME280;63186;51.204;6.536;2024-03-02T01:59:27;99595.78;;;6.71;99.42
74659;BME280;63186;51.204;6.536;2024-03-02T02:01:52;99588.72;;;6.70;99.77
74659;BME280;63186;51.204;6.536;2024-03-02T02:04:17;99589.72;;;6.74;100.00
74659;BME280;63186;51.204;6.536;2024-03-02T02:06:46;99596.00;;;6.75;99.95
74659;BME280;63186;51.204;6.536;2024-03-02T02:09:11;99583.13;;;6.75;99.71
74659;BME280;63186;51.204;6.536;2024-03-02T02:11:37;99593.75;;;6.77;99.77
74659;BME280;63186;51.204;6.536;2024-03-02T02:14:02;99603.38;;;6.74;99.93
74659;BME280;63186;51.204;6.536;2024-03-02T02:16:27;99591.66;;;6.74;100.00
74659;BME280;63186;51.204;6.536;2024-03-02T02:18:52;99598.03;;;6.69;100.00
74659;BME280;63186;51.204;6.536;2024-03-02T02:21:24;99598.84;;;6.70;100.00
74659;BME280;63186;51.204;6.536;2024-03-02T02:23:50;99597.72;;;6.71;100.00
74659;BME280;63186;51.204;6.536;2024-03-02T02:26:15;99599.66;;;6.70;100.00
74659;BME280;63186;51.204;6.536;2024-03-02T02:28:46;99586.31;;;6.69;100.00
74659;BME280;63186;51.204;6.536;2024-03-02T02:31:14;99578.28;;;6.72;100.00
74659;BME280;63186;51.204;6.536;2024-03-02T02:33:40;99583.56;;;6.69;100.00
74659;BME280;63186;51.204;6.536;2024-03-02T02:36:05;99590.78;;;6.65;100.00
74659;BME280;63186;51.204;6.536;2024-03-02T02:38:32;99586.63;;;6.67;100.00
74659;BME280;63186;51.204;6.536;2024-03-02T02:40:58;99595.78;;;6.71;100.00
74659;BME280;63186;51.204;6.536;2024-03-02T02:43:23;99594.53;;;6.77;100.00
74659;BME280;63186;51.204;6.536;2024-03-02T02:45:48;99585.75;;;6.89;98.95
74659;BME280;63186;51.204;6.536;2024-03-02T02:48:14;99587.31;;;7.13;98.15
74659;BME280;63186;51.204;6.536;2024-03-02T02:50:39;99586.22;;;7.22;97.16
74659;BME280;63186;51.204;6.536;2024-03-02T02:53:05;99585.91;;;7.24;97.22
74659;BME280;63186;51.204;6.536;2024-03-02T02:55:31;99589.00;;;7.31;97.14
74659;BME280;63186;51.204;6.536;2024-03-02T02:57:56;99590.59;;;7.32;96.99
74659;BME280;63186;51.204;6.536;2024-03-02T03:00:22;99583.00;;;7.29;97.93
74659;BME280;63186;51.204;6.536;2024-03-02T03:02:49;99584.13;;;7.19;98.69
74659;BME280;63186;51.204;6.536;2024-03-02T03:05:15;99581.50;;;7.14;99.96
74659;BME280;63186;51.204;6.536;2024-03-02T03:07:40;99586.16;;;7.05;100.00
74659;BME280;63186;51.204;6.536;2024-03-02T03:10:07;99599.78;;;6.96;100.00
74659;BME280;63186;51.204;6.536;2024-03-02T03:12:35;99605.22;;;6.88;100.00
74659;BME280;63186;51.204;6.536;2024-03-02T03:15:01;99599.72;;;6.79;100.00
74659;BME280;63186;51.204;6.536;2024-03-02T03:17:26;99606.00;;;6.79;100.00
74659;BME280;63186;51.204;6.536;2024-03-02T03:19:52;99601.13;;;6.76;100.00
74659;BME280;63186;51.204;6.536;2024-03-02T03:22:18;99600.47;;;6.71;100.00
74659;BME280;63186;51.204;6.536;2024-03-02T03:24:43;99609.00;;;6.69;100.00
74659;BME280;63186;51.204;6.536;2024-03-02T03:27:09;99597.56;;;6.67;100.00
74659;BME280;63186;51.204;6.536;2024-03-02T03:29:36;99607.25;;;6.73;100.00
74659;BME280;63186;51.204;6.536;2024-03-02T03:32:02;99606.28;;;6.78;100.00
74659;BME280;63186;51.204;6.536;2024-03-02T03:34:27;99614.19;;;6.79;100.00
74659;BME280;63186;51.204;6.536;2024-03-02T03:36:54;99612.06;;;6.76;100.00
74659;BME280;63186;51.204;6.536;2024-03-02T03:39:19;99602.25;;;6.75;100.00
74659;BME280;63186;51.204;6.536;2024-03-02T03:41:45;99595.78;;;6.71;100.00
74659;BME280;63186;51.204;6.536;2024-03-02T03:44:10;99582.28;;;6.66;100.00
74659;BME280;63186;51.204;6.536;2024-03-02T03:46:35;99584.00;;;6.62;100.00
74659;BME280;63186;51.204;6.536;2024-03-02T03:49:01;99584.94;;;6.58;100.00
74659;BME280;63186;51.204;6.536;2024-03-02T03:51:27;99591.66;;;6.51;100.00
74659;BME280;63186;51.204;6.536;2024-03-02T03:53:52;99593.22;;;6.44;100.00
74659;BME280;63186;51.204;6.536;2024-03-02T03:56:17;99587.22;;;6.33;100.00
74659;BME280;63186;51.204;6.536;2024-03-02T03:58:43;99591.31;;;6.22;100.00
74659;BME280;63186;51.204;6.536;2024-03-02T04:01:08;99594.09;;;6.08;100.00
74659;BME280;63186;51.204;6.536;2024-03-02T04:03:33;99591.84;;;6.10;100.00
74659;BME280;63186;51.204;6.536;2024-03-02T04:05:59;99587.09;;;6.16;100.00
74659;BME280;63186;51.204;6.536;2024-03-02T04:08:24;99591.63;;;6.20;100.00
74659;BME280;63186;51.204;6.536;2024-03-02T04:10:49;99598.72;;;6.21;100.00
74659;BME280;63186;51.204;6.536;2024-03-02T04:13:15;99590.03;;;6.19;100.00
74659;BME280;63186;51.204;6.536;2024-03-02T04:15:40;99589.00;;;6.15;100.00
74659;BME280;63186;51.204;6.536;2024-03-02T04:18:06;99586.59;;;6.14;100.00
74659;BME280;63186;51.204;6.536;2024-03-02T04:20:31;99595.09;;;6.12;100.00
74659;BME280;63186;51.204;6.536;2024-03-02T04:22:57;99593.47;;;6.11;100.00
74659;BME280;63186;51.204;6.536;2024-03-02T04:25:22;99596.84;;;6.08;100.00
74659;BME280;63186;51.204;6.536;2024-03-02T04:27:47;99596.84;;;6.08;100.00
74659;BME280;63186;51.204;6.536;2024-03-02T04:30:13;99598.88;;;6.03;100.00
74659;BME280;63186;51.204;6.536;2024-03-02T04:32:38;99612.34;;;5.99;100.00
74659;BME280;63186;51.204;6.536;2024-03-02T04:35:05;99603.97;;;5.95;100.00
74659;BME280;63186;51.204;6.536;2024-03-02T04:37:33;99597.19;;;5.93;100.00
74659;BME280;63186;51.204;6.536;2024-03-02T04:39:58;99600.00;;;5.88;100.00
74659;BME280;63186;51.204;6.536;2024-03-02T04:42:23;99594.75;;;5.78;100.00
74659;BME280;63186;51.204;6.536;2024-03-02T04:44:49;99592.78;;;5.69;100.00
74659;BME280;63186;51.204;6.536;2024-03-02T04:47:15;99596.31;;;5.70;100.00
74659;BME280;63186;51.204;6.536;2024-03-02T04:49:40;99603.91;;;5.59;100.00
74659;BME280;63186;51.204;6.536;2024-03-02T04:52:05;99604.03;;;5.40;100.00
74659;BME280;63186;51.204;6.536;2024-03-02T04:54:31;99611.41;;;5.26;100.00
74659;BME280;63186;51.204;6.536;2024-03-02T04:56:56;99620.63;;;5.16;100.00
74659;BME280;63186;51.204;6.536;2024-03-02T04:59:22;99620.09;;;5.14;100.00
74659;BME280;63186;51.204;6.536;2024-03-02T05:01:47;99618.59;;;5.22;100.00
74659;BME280;63186;51.204;6.536;2024-03-02T05:04:13;99622.53;;;5.30;100.00
74659;BME280;63186;51.204;6.536;2024-03-02T05:06:39;99614.25;;;5.35;100.00
74659;BME280;63186;51.204;6.536;2024-03-02T05:09:08;99624.88;;;5.36;100.00
74659;BME280;63186;51.204;6.536;2024-03-02T05:11:34;99627.50;;;5.41;100.00
74659;BME280;63186;51.204;6.536;2024-03-02T05:14:03;99613.53;;;5.43;100.00
74659;BME280;63186;51.204;6.536;2024-03-02T05:16:28;99619.50;;;5.45;100.00
74659;BME280;63186;51.204;6.536;2024-03-02T05:18:54;99634.25;;;5.44;100.00
74659;BME280;63186;51.204;6.536;2024-03-02T05:21:19;99630.22;;;5.41;100.00
74659;BME280;63186;51.204;6.536;2024-03-02T05:23:45;99613.00;;;5.41;100.00
74659;BME280;63186;51.204;6.536;2024-03-02T05:26:10;99603.59;;;5.47;100.00
74659;BME280;63186;51.204;6.536;2024-03-02T05:28:38;99609.06;;;5.61;100.00
74659;BME280;63186;51.204;6.536;2024-03-02T05:31:04;99612.38;;;5.71;100.00
74659;BME280;63186;51.204;6.536;2024-03-02T05:33:29;99618.22;;;5.79;100.00
74659;BME280;63186;51.204;6.536;2024-03-02T05:35:56;99617.81;;;5.85;100.00
74659;BME280;63186;51.204;6.536;2024-03-02T05:38:21;99630.06;;;6.02;100.00
74659;BME280;63186;51.204;6.536;2024-03-02T05:40:47;99626.78;;;6.13;100.00
74659;BME280;63186;51.204;6.536;2024-03-02T05:43:12;99629.88;;;6.20;100.00
74659;BME280;63186;51.204;6.536;2024-03-02T05:45:38;99634.84;;;6.18;100.00
74659;BME280;63186;51.204;6.536;2024-03-02T05:48:05;99638.63;;;6.09;100.00
74659;BME280;63186;51.204;6.536;2024-03-02T05:50:30;99633.97;;;6.09;100.00
74659;BME280;63186;51.204;6.536;2024-03-02T05:52:56;99628.19;;;6.11;100.00
74659;BME280;63186;51.204;6.536;2024-03-02T05:55:21;99628.69;;;6.13;100.00
74659;BME280;63186;51.204;6.536;2024-03-02T05:57:47;99629.50;;;6.13;100.00
74659;BME280;63186;51.204;6.536;2024-03-02T06:00:24;99644.25;;;6.12;100.00
74659;BME280;63186;51.204;6.536;2024-03-02T06:02:50;99637.56;;;6.18;100.00
74659;BME280;63186;51.204;6.536;2024-03-02T06:05:15;99633.22;;;6.17;100.00
74659;BME280;63186;51.204;6.536;2024-03-02T06:07:42;99637.06;;;6.16;100.00
74659;BME280;63186;51.204;6.536;2024-03-02T06:10:08;99634.56;;;6.20;100.00
74659;BME280;63186;51.204;6.536;2024-03-02T06:12:34;99644.84;;;6.23;100.00
74659;BME280;63186;51.204;6.536;2024-03-02T06:14:59;99648.69;;;6.22;100.00
74659;BME280;63186;51.204;6.536;2024-03-02T06:17:24;99644.69;;;6.19;100.00
74659;BME280;63186;51.204;6.536;2024-03-02T06:19:50;99637.56;;;6.18;100.00
74659;BME280;63186;51.204;6.536;2024-03-02T06:22:15;99649.31;;;6.19;100.00
74659;BME280;63186;51.204;6.536;2024-03-02T06:24:40;99652.56;;;6.21;100.00
74659;BME280;63186;51.204;6.536;2024-03-02T06:27:06;99651.13;;;6.23;100.00
74659;BME280;63186;51.204;6.536;2024-03-02T06:29:34;99651.81;;;6.29;100.00
74659;BME280;63186;51.204;6.536;2024-03-02T06:31:59;99657.53;;;6.41;100.00
74659;BME280;63186;51.204;6.536;2024-03-02T06:34:25;99658.72;;;6.49;100.00
74659;BME280;63186;51.204;6.536;2024-03-02T06:36:50;99654.94;;;6.59;100.00
74659;BME280;63186;51.204;6.536;2024-03-02T06:39:15;99658.69;;;6.71;100.00
74659;BME280;63186;51.204;6.536;2024-03-02T06:41:41;99665.38;;;6.79;100.00
74659;BME280;63186;51.204;6.536;2024-03-02T06:44:07;99675.06;;;6.85;100.00
74659;BME280;63186;51.204;6.536;2024-03-02T06:46:33;99680.91;;;6.92;100.00
74659;BME280;63186;51.204;6.536;2024-03-02T06:48:58;99676.22;;;6.93;100.00
74659;BME280;63186;51.204;6.536;2024-03-02T06:51:23;99673.38;;;6.98;100.00
74659;BME280;63186;51.204;6.536;2024-03-02T06:53:48;99677.44;;;7.09;100.00
74659;BME280;63186;51.204;6.536;2024-03-02T06:56:14;99678.78;;;7.20;100.00
74659;BME280;63186;51.204;6.536;2024-03-02T06:58:39;99682.56;;;7.33;100.00
74659;BME280;63186;51.204;6.536;2024-03-02T07:01:04;99682.66;;;7.59;100.00
74659;BME280;63186;51.204;6.536;2024-03-02T07:03:30;99677.19;;;7.68;100.00
74659;BME280;63186;51.204;6.536;2024-03-02T07:05:55;99685.91;;;7.70;100.00
74659;BME280;63186;51.204;6.536;2024-03-02T07:08:20;99687.53;;;7.71;100.00
74659;BME280;63186;51.204;6.536;2024-03-02T07:10:46;99694.13;;;7.70;100.00
74659;BME280;63186;51.204;6.536;2024-03-02T07:13:12;99695.88;;;7.66;100.00
74659;BME280;63186;51.204;6.536;2024-03-02T07:15:38;99694.28;;;7.65;100.00
74659;BME280;63186;51.204;6.536;2024-03-02T07:18:32;99699.09;;;7.59;100.00
74659;BME280;63186;51.204;6.536;2024-03-02T07:20:58;99696.16;;;7.55;100.00
74659;BME280;63186;51.204;6.536;2024-03-02T07:23:29;99693.75;;;7.54;100.00
74659;BME280;63186;51.204;6.536;2024-03-02T07:25:55;99698.09;;;7.55;100.00
74659;BME280;63186;51.204;6.536;2024-03-02T07:28:22;99693.75;;;7.54;100.00
74659;BME280;63186;51.204;6.536;2024-03-02T07:30:57;99697.63;;;7.61;100.00
74659;BME280;63186;51.204;6.536;2024-03-02T07:33:23;99696.22;;;7.64;100.00
74659;BME280;63186;51.204;6.536;2024-03-02T07:35:48;99703.31;;;7.74;100.00
74659;BME280;63186;51.204;6.536;2024-03-02T07:38:13;99713.69;;;7.85;100.00
74659;BME280;63186;51.204;6.536;2024-03-02T07:40:39;99726.44;;;7.99;100.00
74659;BME280;63186;51.204;6.536;2024-03-02T07:43:04;99737.13;;;8.09;100.00
74659;BME280;63186;51.204;6.536;2024-03-02T07:45:30;99733.59;;;8.17;100.00
74659;BME280;63186;51.204;6.536;2024-03-02T07:47:55;99738.88;;;8.13;100.00
74659;BME280;63186;51.204;6.536;2024-03-02T07:50:21;99742.94;;;8.25;100.00
74659;BME280;63186;51.204;6.536;2024-03-02T07:52:47;99740.88;;;8.30;99.84
74659;BME280;63186;51.204;6.536;2024-03-02T07:55:12;99740.69;;;8.18;99.46
74659;BME280;63186;51.204;6.536;2024-03-02T07:57:38;99742.75;;;8.04;99.40
74659;BME280;63186;51.204;6.536;2024-03-02T08:00:04;99753.03;;;7.98;100.00
74659;BME280;63186;51.204;6.536;2024-03-02T08:02:29;99752.09;;;8.03;100.00
74659;BME280;63186;51.204;6.536;2024-03-02T08:04:55;99753.72;;;8.04;100.00
74659;BME280;63186;51.204;6.536;2024-03-02T08:07:20;99760.66;;;8.10;100.00
74659;BME280;63186;51.204;6.536;2024-03-02T08:09:45;99763.41;;;8.19;100.00
74659;BME280;63186;51.204;6.536;2024-03-02T08:12:11;99765.59;;;8.65;99.79
74659;BME280;63186;51.204;6.536;2024-03-02T08:14:36;99758.00;;;8.79;95.96
74659;BME280;63186;51.204;6.536;2024-03-02T08:17:01;99762.22;;;8.59;97.69
74659;BME280;63186;51.204;6.536;2024-03-02T08:19:27;99766.09;;;8.50;98.31
74659;BME280;63186;51.204;6.536;2024-03-02T08:21:52;99761.88;;;8.43;98.10
74659;BME280;63186;51.204;6.536;2024-03-02T08:24:18;99758.34;;;8.43;98.90
74659;BME280;63186;51.204;6.536;2024-03-02T08:26:43;99753.16;;;9.02;98.24
74659;BME280;63186;51.204;6.536;2024-03-02T08:29:08;99757.88;;;9.57;92.83
74659;BME280;63186;51.204;6.536;2024-03-02T08:31:34;99748.13;;;9.21;93.10
74659;BME280;63186;51.204;6.536;2024-03-02T08:33:59;99753.94;;;9.20;94.34
74659;BME280;63186;51.204;6.536;2024-03-02T08:36:25;99767.78;;;9.32;95.14
74659;BME280;63186;51.204;6.536;2024-03-02T08:38:51;99755.69;;;9.33;93.64
74659;BME280;63186;51.204;6.536;2024-03-02T08:41:16;99756.63;;;9.37;94.17
74659;BME280;63186;51.204;6.536;2024-03-02T08:43:42;99755.34;;;9.43;93.38
74659;BME280;63186;51.204;6.536;2024-03-02T08:46:08;99757.25;;;9.51;93.25
74659;BME280;63186;51.204;6.536;2024-03-02T08:48:34;99764.81;;;9.63;93.79
74659;BME280;63186;51.204;6.536;2024-03-02T08:50:59;99764.97;;;9.58;90.16
74659;BME280;63186;51.204;6.536;2024-03-02T08:53:25;99757.91;;;9.48;90.16
74659;BME280;63186;51.204;6.536;2024-03-02T08:55:50;99762.56;;;9.57;91.35
74659;BME280;63186;51.204;6.536;2024-03-02T08:58:15;99769.09;;;9.82;89.99
74659;BME280;63186;51.204;6.536;2024-03-02T09:00:41;99773.22;;;10.05;89.77
74659;BME280;63186;51.204;6.536;2024-03-02T09:03:07;99765.72;;;10.14;88.45
74659;BME280;63186;51.204;6.536;2024-03-02T09:05:32;99761.94;;;9.98;88.61
74659;BME280;63186;51.204;6.536;2024-03-02T09:07:58;99767.94;;;9.91;89.47
74659;BME280;63186;51.204;6.536;2024-03-02T09:10:23;99773.63;;;9.86;88.41
74659;BME280;63186;51.204;6.536;2024-03-02T09:12:48;99769.22;;;9.94;89.11
74659;BME280;63186;51.204;6.536;2024-03-02T09:15:14;99772.00;;;10.15;87.80
74659;BME280;63186;51.204;6.536;2024-03-02T09:17:39;99772.00;;;11.07;85.63
74659;BME280;63186;51.204;6.536;2024-03-02T09:20:05;99757.28;;;11.24;80.97
74659;BME280;63186;51.204;6.536;2024-03-02T09:22:31;99765.94;;;10.80;81.16
74659;BME280;63186;51.204;6.536;2024-03-02T09:24:57;99773.47;;;10.71;84.17
74659;BME280;63186;51.204;6.536;2024-03-02T09:27:23;99768.53;;;10.98;82.29
74659;BME280;63186;51.204;6.536;2024-03-02T09:29:48;99772.53;;;11.66;80.02
74659;BME280;63186;51.204;6.536;2024-03-02T09:32:13;99776.09;;;14.59;70.38
74659;BME280;63186;51.204;6.536;2024-03-02T09:34:39;99767.19;;;16.12;61.20
74659;BME280;63186;51.204;6.536;2024-03-02T09:37:04;99768.81;;;16.96;56.97
74659;BME280;63186;51.204;6.536;2024-03-02T09:39:30;99763.06;;;16.02;59.77
74659;BME280;63186;51.204;6.536;2024-03-02T09:41:56;99755.56;;;14.60;61.80
74659;BME280;63186;51.204;6.536;2024-03-02T09:44:22;99751.25;;;13.49;68.30
74659;BME280;63186;51.204;6.536;2024-03-02T09:46:51;99755.34;;;12.83;70.17
74659;BME280;63186;51.204;6.536;2024-03-02T09:49:16;99760.75;;;12.27;70.52
74659;BME280;63186;51.204;6.536;2024-03-02T09:51:47;99763.66;;;11.94;71.63
74659;BME280;63186;51.204;6.536;2024-03-02T09:54:14;99756.41;;;12.02;72.72
74659;BME280;63186;51.204;6.536;2024-03-02T09:56:40;99760.88;;;12.71;69.34
74659;BME280;63186;51.204;6.536;2024-03-02T09:59:05;99756.03;;;13.96;67.67
74659;BME280;63186;51.204;6.536;2024-03-02T10:01:31;99765.44;;;14.97;60.68
74659;BME280;63186;51.204;6.536;2024-03-02T10:03:59;99759.88;;;14.97;58.37
74659;BME280;63186;51.204;6.536;2024-03-02T10:06:25;99760.94;;;14.53;57.20
74659;BME280;63186;51.204;6.536;2024-03-02T10:08:51;99762.03;;;14.49;61.02
74659;BME280;63186;51.204;6.536;2024-03-02T10:11:33;99763.47;;;14.97;57.74
74659;BME280;63186;51.204;6.536;2024-03-02T10:14:09;99755.84;;;14.39;58.41
74659;BME280;63186;51.204;6.536;2024-03-02T10:16:40;99761.28;;;14.87;55.37
74659;BME280;63186;51.204;6.536;2024-03-02T10:21:40;99743.97;;;15.32;55.76
74659;BME280;63186;51.204;6.536;2024-03-02T10:24:08;99752.22;;;15.52;55.96
74659;BME280;63186;51.204;6.536;2024-03-02T10:26:34;99752.94;;;15.26;54.74
74659;BME280;63186;51.204;6.536;2024-03-02T10:28:59;99750.47;;;15.20;54.74
74659;BME280;63186;51.204;6.536;2024-03-02T10:31:25;99755.78;;;15.29;57.06
74659;BME280;63186;51.204;6.536;2024-03-02T10:33:54;99745.22;;;15.15;53.46
74659;BME280;63186;51.204;6.536;2024-03-02T10:36:20;99743.34;;;15.00;57.57
74659;BME280;63186;51.204;6.536;2024-03-02T10:38:46;99750.34;;;14.94;57.46
74659;BME280;63186;51.204;6.536;2024-03-02T10:41:17;99742.22;;;14.66;58.98
74659;BME280;63186;51.204;6.536;2024-03-02T10:43:43;99733.91;;;14.31;59.60
74659;BME280;63186;51.204;6.536;2024-03-02T10:46:09;99725.38;;;14.04;60.69
74659;BME280;63186;51.204;6.536;2024-03-02T10:48:36;99722.38;;;13.62;59.87
74659;BME280;63186;51.204;6.536;2024-03-02T10:51:04;99707.09;;;13.21;60.51
74659;BME280;63186;51.204;6.536;2024-03-02T10:53:30;99716.75;;;13.15;64.22
74659;BME280;63186;51.204;6.536;2024-03-02T10:55:58;99722.00;;;13.32;63.22
74659;BME280;63186;51.204;6.536;2024-03-02T10:58:31;99723.50;;;13.29;60.38
74659;BME280;63186;51.204;6.536;2024-03-02T11:01:02;99716.03;;;13.46;63.31
74659;BME280;63186;51.204;6.536;2024-03-02T11:03:29;99716.31;;;13.72;62.67
74659;BME280;63186;51.204;6.536;2024-03-02T11:05:56;99722.19;;;13.55;61.52
74659;BME280;63186;51.204;6.536;2024-03-02T11:08:23;99724.59;;;13.41;62.49
74659;BME280;63186;51.204;6.536;2024-03-02T11:10:52;99710.69;;;13.37;63.30
74659;BME280;63186;51.204;6.536;2024-03-02T11:13:22;99707.03;;;13.33;64.75
74659;BME280;63186;51.204;6.536;2024-03-02T11:15:52;99706.31;;;13.83;62.59
74659;BME280;63186;51.204;6.536;2024-03-02T11:18:20;99708.38;;;13.71;63.51
74659;BME280;63186;51.204;6.536;2024-03-02T11:20:45;99700.25;;;13.62;63.29
74659;BME280;63186;51.204;6.536;2024-03-02T11:23:11;99695.34;;;13.55;62.70
74659;BME280;63186;51.204;6.536;2024-03-02T11:25:37;99703.53;;;13.36;64.75
74659;BME280;63186;51.204;6.536;2024-03-02T11:28:05;99715.31;;;13.49;64.64
74659;BME280;63186;51.204;6.536;2024-03-02T11:33:06;99714.97;;;13.50;64.32
74659;BME280;63186;51.204;6.536;2024-03-02T11:35:36;99705.69;;;13.43;63.94
74659;BME280;63186;51.204;6.536;2024-03-02T11:38:02;99704.88;;;13.26;61.37
74659;BME280;63186;51.204;6.536;2024-03-02T11:40:29;99703.81;;;13.03;64.20
74659;BME280;63186;51.204;6.536;2024-03-02T11:42:55;99699.25;;;12.95;64.48
74659;BME280;63186;51.204;6.536;2024-03-02T11:45:25;99696.78;;;13.06;64.00
74659;BME280;63186;51.204;6.536;2024-03-02T11:47:53;99700.25;;;13.30;65.51
74659;BME280;63186;51.204;6.536;2024-03-02T11:50:36;99694.22;;;13.13;66.94
74659;BME280;63186;51.204;6.536;2024-03-02T11:53:08;99692.31;;;13.01;65.58
74659;BME280;63186;51.204;6.536;2024-03-02T11:55:36;99685.97;;;13.00;64.82
74659;BME280;63186;51.204;6.536;2024-03-02T11:58:04;99684.09;;;12.61;66.70
74659;BME280;63186;51.204;6.536;2024-03-02T12:00:30;99676.50;;;12.58;66.66
74659;BME280;63186;51.204;6.536;2024-03-02T12:03:05;99673.88;;;12.49;63.86
74659;BME280;63186;51.204;6.536;2024-03-02T12:05:32;99671.31;;;12.28;65.98
74659;BME280;63186;51.204;6.536;2024-03-02T12:07:58;99676.09;;;12.31;66.03
74659;BME280;63186;51.204;6.536;2024-03-02T12:10:25;99661.91;;;12.45;66.96
74659;BME280;63186;51.204;6.536;2024-03-02T12:13:03;99654.88;;;12.60;65.87
74659;BME280;63186;51.204;6.536;2024-03-02T12:15:31;99649.59;;;12.55;64.72
74659;BME280;63186;51.204;6.536;2024-03-02T12:17:59;99649.25;;;12.56;66.13
74659;BME280;63186;51.204;6.536;2024-03-02T12:20:25;99635.03;;;12.70;65.85
74659;BME280;63186;51.204;6.536;2024-03-02T12:22:52;99634.41;;;12.76;65.24
74659;BME280;63186;51.204;6.536;2024-03-02T12:25:18;99641.47;;;12.74;63.62
74659;BME280;63186;51.204;6.536;2024-03-02T12:27:44;99630.22;;;12.67;63.83
74659;BME280;63186;51.204;6.536;2024-03-02T12:30:11;99636.91;;;12.66;64.09
74659;BME280;63186;51.204;6.536;2024-03-02T12:32:37;99629.41;;;12.66;64.17
74659;BME280;63186;51.204;6.536;2024-03-02T12:35:04;99631.03;;;12.67;64.84
74659;BME280;63186;51.204;6.536;2024-03-02T12:37:30;99622.13;;;12.74;65.35
74659;BME280;63186;51.204;6.536;2024-03-02T12:39:56;99622.94;;;12.90;65.45
74659;BME280;63186;51.204;6.536;2024-03-02T12:42:21;99619.06;;;12.91;66.48
74659;BME280;63186;51.204;6.536;2024-03-02T12:44:47;99626.06;;;12.89;66.78
74659;BME280;63186;51.204;6.536;2024-03-02T12:47:12;99621.13;;;12.66;66.35
74659;BME280;63186;51.204;6.536;2024-03-02T12:49:40;99619.97;;;12.67;65.94
74659;BME280;63186;51.204;6.536;2024-03-02T12:52:06;99614.69;;;12.62;68.45
74659;BME280;63186;51.204;6.536;2024-03-02T12:54:32;99618.13;;;12.71;67.36
74659;BME280;63186;51.204;6.536;2024-03-02T12:56:58;99612.69;;;12.91;67.52
74659;BME280;63186;51.204;6.536;2024-03-02T12:59:24;99613.31;;;12.84;66.68
74659;BME280;63186;51.204;6.536;2024-03-02T13:01:52;99603.84;;;12.69;65.22
74659;BME280;63186;51.204;6.536;2024-03-02T13:04:22;99609.00;;;12.71;67.28
74659;BME280;63186;51.204;6.536;2024-03-02T13:06:48;99618.94;;;12.72;66.63
74659;BME280;63186;51.204;6.536;2024-03-02T13:09:15;99613.84;;;12.74;67.01
74659;BME280;63186;51.204;6.536;2024-03-02T13:11:41;99612.31;;;12.76;68.05
74659;BME280;63186;51.204;6.536;2024-03-02T13:14:07;99610.09;;;12.66;66.29